sensor_id;sensor_type;location;lat;lon;timestamp;temperature;humidity
54954;DHT22;40855;51.072;5.402;2023-02-25T00:01:20;4.40;99.90
54954;DHT22;40855;51.072;5.402;2023-02-25T00:03:46;4.40;99.90
54954;DHT22;40855;51.072;5.402;2023-02-25T00:06:13;4.40;99.90
54954;DHT22;40855;51.072;5.402;2023-02-25T00:08:42;4.40;99.90
54954;DHT22;40855;51.072;5.402;2023-02-25T00:11:09;4.40;99.90
54954;DHT22;40855;51.072;5.402;2023-02-25T00:13:38;4.30;99.90
54954;DHT22;40855;51.072;5.402;2023-02-25T00:16:05;4.50;99.90
54954;DHT22;40855;51.072;5.402;2023-02-25T00:18:31;4.40;99.90
54954;DHT22;40855;51.072;5.402;2023-02-25T00:20:57;4.30;99.90
54954;DHT22;40855;51.072;5.402;2023-02-25T00:23:24;4.30;99.90
54954;DHT22;40855;51.072;5.402;2023-02-25T00:26:03;4.30;99.90
54954;DHT22;40855;51.072;5.402;2023-02-25T00:28:32;4.30;99.90
54954;DHT22;40855;51.072;5.402;2023-02-25T00:30:58;4.30;99.90
54954;DHT22;40855;51.072;5.402;2023-02-25T00:33:23;4.30;99.90
54954;DHT22;40855;51.072;5.402;2023-02-25T00:35:49;4.30;99.90
54954;DHT22;40855;51.072;5.402;2023-02-25T00:38:15;4.30;99.90
54954;DHT22;40855;51.072;5.402;2023-02-25T00:40:42;4.30;99.90
54954;DHT22;40855;51.072;5.402;2023-02-25T00:43:08;4.30;99.90
54954;DHT22;40855;51.072;5.402;2023-02-25T00:45:33;4.30;99.90
54954;DHT22;40855;51.072;5.402;2023-02-25T00:48:00;4.30;99.90
54954;DHT22;40855;51.072;5.402;2023-02-25T00:50:25;4.30;99.90
54954;DHT22;40855;51.072;5.402;2023-02-25T00:52:51;4.30;99.90
54954;DHT22;40855;51.072;5.402;2023-02-25T00:55:17;4.30;99.90
54954;DHT22;40855;51.072;5.402;2023-02-25T00:57:42;4.20;99.90
54954;DHT22;40855;51.072;5.402;2023-02-25T01:00:09;4.20;99.90
54954;DHT22;40855;51.072;5.402;2023-02-25T01:02:41;4.20;99.90
54954;DHT22;40855;51.072;5.402;2023-02-25T01:05:12;4.20;99.90
54954;DHT22;40855;51.072;5.402;2023-02-25T01:07:38;4.10;99.90
54954;DHT22;40855;51.072;5.402;2023-02-25T01:10:04;4.10;99.90
54954;DHT22;40855;51.072;5.402;2023-02-25T01:12:30;4.10;99.90
54954;DHT22;40855;51.072;5.402;2023-02-25T01:14:56;4.10;99.90
54954;DHT22;40855;51.072;5.402;2023-02-25T01:17:22;4.10;99.90
54954;DHT22;40855;51.072;5.402;2023-02-25T01:19:48;4.10;99.90
54954;DHT22;40855;51.072;5.402;2023-02-25T01:22:14;4.00;99.90
54954;DHT22;40855;51.072;5.402;2023-02-25T01:24:40;4.10;99.90
54954;DHT22;40855;51.072;5.402;2023-02-25T01:27:06;4.00;99.90
54954;DHT22;40855;51.072;5.402;2023-02-25T01:29:37;4.00;99.90
54954;DHT22;40855;51.072;5.402;2023-02-25T01:32:05;3.90;99.90
54954;DHT22;40855;51.072;5.402;2023-02-25T01:34:31;3.90;99.90
54954;DHT22;40855;51.072;5.402;2023-02-25T01:36:57;3.90;99.90
54954;DHT22;40855;51.072;5.402;2023-02-25T01:39:24;3.90;99.90
54954;DHT22;40855;51.072;5.402;2023-02-25T01:41:52;3.80;99.90
54954;DHT22;40855;51.072;5.402;2023-02-25T01:46:46;3.80;99.90
54954;DHT22;40855;51.072;5.402;2023-02-25T01:49:17;3.70;99.90
54954;DHT22;40855;51.072;5.402;2023-02-25T01:51:45;3.70;99.90
54954;DHT22;40855;51.072;5.402;2023-02-25T01:54:12;3.70;99.90
54954;DHT22;40855;51.072;5.402;2023-02-25T01:56:41;3.70;99.90
54954;DHT22;40855;51.072;5.402;2023-02-25T01:59:09;3.70;99.90
54954;DHT22;40855;51.072;5.402;2023-02-25T02:01:37;3.70;99.90
54954;DHT22;40855;51.072;5.402;2023-02-25T02:04:06;3.70;99.90
54954;DHT22;40855;51.072;5.402;2023-02-25T02:06:38;3.60;99.90
54954;DHT22;40855;51.072;5.402;2023-02-25T02:09:07;3.60;99.90
54954;DHT22;40855;51.072;5.402;2023-02-25T02:11:33;3.50;99.90
54954;DHT22;40855;51.072;5.402;2023-02-25T02:14:01;3.50;99.90
54954;DHT22;40855;51.072;5.402;2023-02-25T02:30:22;3.40;99.90
54954;DHT22;40855;51.072;5.402;2023-02-25T02:35:31;3.30;99.90
54954;DHT22;40855;51.072;5.402;2023-02-25T02:38:13;3.30;99.90
54954;DHT22;40855;51.072;5.402;2023-02-25T02:41:32;3.30;99.90
54954;DHT22;40855;51.072;5.402;2023-02-25T02:44:16;3.30;99.90
54954;DHT22;40855;51.072;5.402;2023-02-25T02:46:46;3.20;99.90
54954;DHT22;40855;51.072;5.402;2023-02-25T02:49:25;3.30;99.90
54954;DHT22;40855;51.072;5.402;2023-02-25T02:51:58;3.20;99.90
54954;DHT22;40855;51.072;5.402;2023-02-25T02:54:30;3.10;99.90
54954;DHT22;40855;51.072;5.402;2023-02-25T02:56:57;3.20;99.90
54954;DHT22;40855;51.072;5.402;2023-02-25T03:02:03;3.10;99.90
54954;DHT22;40855;51.072;5.402;2023-02-25T03:04:33;3.20;99.90
54954;DHT22;40855;51.072;5.402;2023-02-25T03:07:08;3.10;99.90
54954;DHT22;40855;51.072;5.402;2023-02-25T03:09:40;3.20;99.90
54954;DHT22;40855;51.072;5.402;2023-02-25T03:12:07;3.10;99.90
54954;DHT22;40855;51.072;5.402;2023-02-25T03:14:35;3.10;99.90
54954;DHT22;40855;51.072;5.402;2023-02-25T03:19:54;3.10;99.90
54954;DHT22;40855;51.072;5.402;2023-02-25T03:22:26;3.10;99.90
54954;DHT22;40855;51.072;5.402;2023-02-25T03:24:57;3.10;99.90
54954;DHT22;40855;51.072;5.402;2023-02-25T03:27:29;3.10;99.90
54954;DHT22;40855;51.072;5.402;2023-02-25T03:33:00;3.10;99.90
54954;DHT22;40855;51.072;5.402;2023-02-25T03:35:28;3.10;99.90
54954;DHT22;40855;51.072;5.402;2023-02-25T03:38:01;3.10;99.90
54954;DHT22;40855;51.072;5.402;2023-02-25T03:40:29;3.10;99.90
54954;DHT22;40855;51.072;5.402;2023-02-25T03:43:25;3.10;99.90
54954;DHT22;40855;51.072;5.402;2023-02-25T03:45:53;3.10;99.90
54954;DHT22;40855;51.072;5.402;2023-02-25T03:48:20;3.00;99.90
54954;DHT22;40855;51.072;5.402;2023-02-25T03:50:55;3.00;99.90
54954;DHT22;40855;51.072;5.402;2023-02-25T03:53:24;3.00;99.90
54954;DHT22;40855;51.072;5.402;2023-02-25T03:55:51;3.00;99.90
54954;DHT22;40855;51.072;5.402;2023-02-25T03:58:18;3.00;99.90
54954;DHT22;40855;51.072;5.402;2023-02-25T04:00:45;3.00;99.90
54954;DHT22;40855;51.072;5.402;2023-02-25T04:03:12;3.00;99.90
54954;DHT22;40855;51.072;5.402;2023-02-25T04:05:38;2.90;99.90
54954;DHT22;40855;51.072;5.402;2023-02-25T04:08:04;3.00;99.90
54954;DHT22;40855;51.072;5.402;2023-02-25T04:10:41;2.90;99.90
54954;DHT22;40855;51.072;5.402;2023-02-25T04:13:10;2.90;99.90
54954;DHT22;40855;51.072;5.402;2023-02-25T04:15:36;2.90;99.90
54954;DHT22;40855;51.072;5.402;2023-02-25T04:18:02;2.90;99.90
54954;DHT22;40855;51.072;5.402;2023-02-25T04:20:28;2.80;99.90
54954;DHT22;40855;51.072;5.402;2023-02-25T04:22:54;2.80;99.90
54954;DHT22;40855;51.072;5.402;2023-02-25T04:25:20;2.80;99.90
54954;DHT22;40855;51.072;5.402;2023-02-25T04:27:46;2.80;99.90
54954;DHT22;40855;51.072;5.402;2023-02-25T04:30:13;2.80;99.90
54954;DHT22;40855;51.072;5.402;2023-02-25T04:32:39;2.80;99.90
54954;DHT22;40855;51.072;5.402;2023-02-25T04:35:05;2.80;99.90
54954;DHT22;40855;51.072;5.402;2023-02-25T04:37:34;2.90;99.90
54954;DHT22;40855;51.072;5.402;2023-02-25T04:39:59;2.80;99.90
54954;DHT22;40855;51.072;5.402;2023-02-25T04:42:25;2.80;99.90
54954;DHT22;40855;51.072;5.402;2023-02-25T04:44:51;2.80;99.90
54954;DHT22;40855;51.072;5.402;2023-02-25T04:47:16;2.80;99.90
54954;DHT22;40855;51.072;5.402;2023-02-25T04:49:43;2.80;99.90
54954;DHT22;40855;51.072;5.402;2023-02-25T04:52:13;2.80;99.90
54954;DHT22;40855;51.072;5.402;2023-02-25T04:54:39;2.90;99.90
54954;DHT22;40855;51.072;5.402;2023-02-25T04:57:06;2.80;99.90
54954;DHT22;40855;51.072;5.402;2023-02-25T04:59:32;2.80;99.90
54954;DHT22;40855;51.072;5.402;2023-02-25T05:01:58;2.80;99.90
54954;DHT22;40855;51.072;5.402;2023-02-25T05:04:24;2.80;99.90
54954;DHT22;40855;51.072;5.402;2023-02-25T05:06:50;2.80;99.90
54954;DHT22;40855;51.072;5.402;2023-02-25T05:09:15;2.70;99.90
54954;DHT22;40855;51.072;5.402;2023-02-25T05:11:41;2.80;99.90
54954;DHT22;40855;51.072;5.402;2023-02-25T05:14:06;2.80;99.90
54954;DHT22;40855;51.072;5.402;2023-02-25T05:16:32;2.80;99.90
54954;DHT22;40855;51.072;5.402;2023-02-25T05:18:58;2.80;99.90
54954;DHT22;40855;51.072;5.402;2023-02-25T05:21:25;2.80;99.90
54954;DHT22;40855;51.072;5.402;2023-02-25T05:23:51;2.80;99.90
54954;DHT22;40855;51.072;5.402;2023-02-25T05:26:20;2.80;99.90
54954;DHT22;40855;51.072;5.402;2023-02-25T05:28:54;2.80;99.90
54954;DHT22;40855;51.072;5.402;2023-02-25T05:31:20;2.80;99.90
54954;DHT22;40855;51.072;5.402;2023-02-25T05:33:46;2.80;99.90
54954;DHT22;40855;51.072;5.402;2023-02-25T05:36:14;2.80;99.90
54954;DHT22;40855;51.072;5.402;2023-02-25T05:38:40;2.80;99.90
54954;DHT22;40855;51.072;5.402;2023-02-25T05:41:06;2.80;99.90
54954;DHT22;40855;51.072;5.402;2023-02-25T05:43:33;2.80;99.90
54954;DHT22;40855;51.072;5.402;2023-02-25T05:46:00;2.80;99.90
54954;DHT22;40855;51.072;5.402;2023-02-25T05:48:29;2.80;99.90
54954;DHT22;40855;51.072;5.402;2023-02-25T05:51:06;2.80;99.90
54954;DHT22;40855;51.072;5.402;2023-02-25T05:53:33;2.80;99.90
54954;DHT22;40855;51.072;5.402;2023-02-25T05:56:06;2.80;99.90
54954;DHT22;40855;51.072;5.402;2023-02-25T05:58:32;2.80;99.90
54954;DHT22;40855;51.072;5.402;2023-02-25T06:00:58;2.80;99.90
54954;DHT22;40855;51.072;5.402;2023-02-25T06:03:24;2.90;99.90
54954;DHT22;40855;51.072;5.402;2023-02-25T06:05:50;2.80;99.90
54954;DHT22;40855;51.072;5.402;2023-02-25T06:08:17;2.90;99.90
54954;DHT22;40855;51.072;5.402;2023-02-25T06:10:43;2.80;99.90
54954;DHT22;40855;51.072;5.402;2023-02-25T06:13:10;2.80;99.90
54954;DHT22;40855;51.072;5.402;2023-02-25T06:15:40;2.80;99.90
54954;DHT22;40855;51.072;5.402;2023-02-25T06:18:07;2.80;99.90
54954;DHT22;40855;51.072;5.402;2023-02-25T06:20:33;2.80;99.90
54954;DHT22;40855;51.072;5.402;2023-02-25T06:23:03;2.90;99.90
54954;DHT22;40855;51.072;5.402;2023-02-25T06:25:29;2.80;99.90
54954;DHT22;40855;51.072;5.402;2023-02-25T06:27:59;2.80;99.90
54954;DHT22;40855;51.072;5.402;2023-02-25T06:30:25;2.90;99.90
54954;DHT22;40855;51.072;5.402;2023-02-25T06:32:51;2.80;99.90
54954;DHT22;40855;51.072;5.402;2023-02-25T06:35:17;2.80;99.90
54954;DHT22;40855;51.072;5.402;2023-02-25T06:37:57;2.80;99.90
54954;DHT22;40855;51.072;5.402;2023-02-25T06:40:25;2.90;99.90
54954;DHT22;40855;51.072;5.402;2023-02-25T06:42:51;2.90;99.90
54954;DHT22;40855;51.072;5.402;2023-02-25T06:45:17;2.90;99.90
54954;DHT22;40855;51.072;5.402;2023-02-25T06:47:43;2.80;99.90
54954;DHT22;40855;51.072;5.402;2023-02-25T06:50:09;2.80;99.90
54954;DHT22;40855;51.072;5.402;2023-02-25T06:52:35;2.90;99.90
54954;DHT22;40855;51.072;5.402;2023-02-25T06:55:01;2.80;99.90
54954;DHT22;40855;51.072;5.402;2023-02-25T06:57:27;2.80;99.90
54954;DHT22;40855;51.072;5.402;2023-02-25T06:59:52;2.80;99.90
54954;DHT22;40855;51.072;5.402;2023-02-25T07:02:19;2.80;99.90
54954;DHT22;40855;51.072;5.402;2023-02-25T07:04:44;2.80;99.90
54954;DHT22;40855;51.072;5.402;2023-02-25T07:07:10;2.80;99.90
54954;DHT22;40855;51.072;5.402;2023-02-25T07:09:36;2.90;99.90
54954;DHT22;40855;51.072;5.402;2023-02-25T07:12:02;2.90;99.90
54954;DHT22;40855;51.072;5.402;2023-02-25T07:14:28;2.80;99.90
54954;DHT22;40855;51.072;5.402;2023-02-25T07:16:53;2.90;99.90
54954;DHT22;40855;51.072;5.402;2023-02-25T07:19:19;2.80;99.90
54954;DHT22;40855;51.072;5.402;2023-02-25T07:21:45;2.80;99.90
54954;DHT22;40855;51.072;5.402;2023-02-25T07:24:11;2.80;99.90
54954;DHT22;40855;51.072;5.402;2023-02-25T07:26:37;2.80;99.90
54954;DHT22;40855;51.072;5.402;2023-02-25T07:29:04;2.80;99.90
54954;DHT22;40855;51.072;5.402;2023-02-25T07:31:31;2.90;99.90
54954;DHT22;40855;51.072;5.402;2023-02-25T07:33:57;2.90;99.90
54954;DHT22;40855;51.072;5.402;2023-02-25T07:36:35;2.90;99.90
54954;DHT22;40855;51.072;5.402;2023-02-25T07:39:07;2.90;99.90
54954;DHT22;40855;51.072;5.402;2023-02-25T07:41:34;2.90;99.90
54954;DHT22;40855;51.072;5.402;2023-02-25T07:44:00;2.90;99.90
54954;DHT22;40855;51.072;5.402;2023-02-25T07:46:26;2.90;99.90
54954;DHT22;40855;51.072;5.402;2023-02-25T07:48:52;2.90;99.90
54954;DHT22;40855;51.072;5.402;2023-02-25T07:51:20;2.90;99.90
54954;DHT22;40855;51.072;5.402;2023-02-25T07:53:47;3.00;99.90
54954;DHT22;40855;51.072;5.402;2023-02-25T07:56:13;3.00;99.90
54954;DHT22;40855;51.072;5.402;2023-02-25T07:58:39;3.00;99.90
54954;DHT22;40855;51.072;5.402;2023-02-25T08:01:10;3.10;99.90
54954;DHT22;40855;51.072;5.402;2023-02-25T08:03:37;3.10;99.90
54954;DHT22;40855;51.072;5.402;2023-02-25T08:06:03;3.10;99.90
54954;DHT22;40855;51.072;5.402;2023-02-25T08:08:34;3.20;99.90
54954;DHT22;40855;51.072;5.402;2023-02-25T08:11:05;3.20;99.90
54954;DHT22;40855;51.072;5.402;2023-02-25T08:13:30;3.30;99.90
54954;DHT22;40855;51.072;5.402;2023-02-25T08:15:56;3.20;99.90
54954;DHT22;40855;51.072;5.402;2023-02-25T08:18:22;3.30;99.90
54954;DHT22;40855;51.072;5.402;2023-02-25T08:20:48;3.40;99.90
54954;DHT22;40855;51.072;5.402;2023-02-25T08:23:14;3.40;99.90
54954;DHT22;40855;51.072;5.402;2023-02-25T08:25:40;3.50;99.90
54954;DHT22;40855;51.072;5.402;2023-02-25T08:28:06;3.50;99.90
54954;DHT22;40855;51.072;5.402;2023-02-25T08:30:31;3.60;99.90
54954;DHT22;40855;51.072;5.402;2023-02-25T08:32:57;3.60;99.90
54954;DHT22;40855;51.072;5.402;2023-02-25T08:35:24;3.70;99.90
54954;DHT22;40855;51.072;5.402;2023-02-25T08:37:51;3.70;99.90
54954;DHT22;40855;51.072;5.402;2023-02-25T08:40:18;3.70;99.90
54954;DHT22;40855;51.072;5.402;2023-02-25T08:42:44;3.80;99.90
54954;DHT22;40855;51.072;5.402;2023-02-25T08:45:10;3.90;99.90
54954;DHT22;40855;51.072;5.402;2023-02-25T08:47:36;4.00;99.90
54954;DHT22;40855;51.072;5.402;2023-02-25T08:50:02;4.00;99.90
54954;DHT22;40855;51.072;5.402;2023-02-25T08:52:29;4.10;99.90
54954;DHT22;40855;51.072;5.402;2023-02-25T08:55:02;4.10;99.90
54954;DHT22;40855;51.072;5.402;2023-02-25T08:57:28;4.20;99.90
54954;DHT22;40855;51.072;5.402;2023-02-25T08:59:54;4.30;99.90
54954;DHT22;40855;51.072;5.402;2023-02-25T09:02:20;4.40;99.90
54954;DHT22;40855;51.072;5.402;2023-02-25T09:04:46;4.50;99.90
54954;DHT22;40855;51.072;5.402;2023-02-25T09:07:11;4.60;99.90
54954;DHT22;40855;51.072;5.402;2023-02-25T09:09:41;4.60;99.90
54954;DHT22;40855;51.072;5.402;2023-02-25T09:12:08;4.60;99.90
54954;DHT22;40855;51.072;5.402;2023-02-25T09:14:33;4.70;99.90
54954;DHT22;40855;51.072;5.402;2023-02-25T09:17:03;4.80;99.90
54954;DHT22;40855;51.072;5.402;2023-02-25T09:19:30;4.90;99.90
54954;DHT22;40855;51.072;5.402;2023-02-25T09:21:56;4.90;99.90
54954;DHT22;40855;51.072;5.402;2023-02-25T09:24:22;5.00;99.90
54954;DHT22;40855;51.072;5.402;2023-02-25T09:26:49;5.00;99.90
54954;DHT22;40855;51.072;5.402;2023-02-25T09:29:15;5.10;99.90
54954;DHT22;40855;51.072;5.402;2023-02-25T09:31:41;5.10;99.90
54954;DHT22;40855;51.072;5.402;2023-02-25T09:34:09;5.20;99.90
54954;DHT22;40855;51.072;5.402;2023-02-25T09:36:35;5.20;99.90
54954;DHT22;40855;51.072;5.402;2023-02-25T09:39:02;5.30;99.90
54954;DHT22;40855;51.072;5.402;2023-02-25T09:41:30;5.30;99.90
54954;DHT22;40855;51.072;5.402;2023-02-25T09:44:11;5.50;99.90
54954;DHT22;40855;51.072;5.402;2023-02-25T09:47:00;5.60;99.90
54954;DHT22;40855;51.072;5.402;2023-02-25T09:49:37;5.70;99.90
54954;DHT22;40855;51.072;5.402;2023-02-25T09:54:42;5.80;99.90
54954;DHT22;40855;51.072;5.402;2023-02-25T09:57:12;5.90;99.90
54954;DHT22;40855;51.072;5.402;2023-02-25T09:59:40;5.90;99.90
54954;DHT22;40855;51.072;5.402;2023-02-25T10:10:54;6.20;99.90
54954;DHT22;40855;51.072;5.402;2023-02-25T10:19:08;6.30;99.90
54954;DHT22;40855;51.072;5.402;2023-02-25T10:24:33;6.30;99.90
54954;DHT22;40855;51.072;5.402;2023-02-25T10:29:46;6.30;99.90
54954;DHT22;40855;51.072;5.402;2023-02-25T10:32:35;6.50;99.90
54954;DHT22;40855;51.072;5.402;2023-02-25T10:35:14;6.50;99.90
54954;DHT22;40855;51.072;5.402;2023-02-25T10:37:41;6.40;99.90
54954;DHT22;40855;51.072;5.402;2023-02-25T10:40:18;6.50;99.90
54954;DHT22;40855;51.072;5.402;2023-02-25T10:42:50;6.50;99.90
54954;DHT22;40855;51.072;5.402;2023-02-25T10:45:23;6.60;99.90
54954;DHT22;40855;51.072;5.402;2023-02-25T10:48:06;6.50;99.90
54954;DHT22;40855;51.072;5.402;2023-02-25T10:50:36;6.60;99.90
54954;DHT22;40855;51.072;5.402;2023-02-25T10:53:15;6.60;99.90
54954;DHT22;40855;51.072;5.402;2023-02-25T10:58:40;6.60;99.90
54954;DHT22;40855;51.072;5.402;2023-02-25T11:01:17;6.70;99.90
54954;DHT22;40855;51.072;5.402;2023-02-25T11:03:51;6.70;99.90
54954;DHT22;40855;51.072;5.402;2023-02-25T11:06:21;6.60;99.90
54954;DHT22;40855;51.072;5.402;2023-02-25T11:08:47;6.70;99.90
54954;DHT22;40855;51.072;5.402;2023-02-25T11:14:03;6.80;99.90
54954;DHT22;40855;51.072;5.402;2023-02-25T11:16:36;6.80;99.90
54954;DHT22;40855;51.072;5.402;2023-02-25T11:19:24;6.90;99.90
54954;DHT22;40855;51.072;5.402;2023-02-25T11:21:51;6.90;99.90
54954;DHT22;40855;51.072;5.402;2023-02-25T11:24:30;7.10;99.90
54954;DHT22;40855;51.072;5.402;2023-02-25T11:26:56;7.10;99.90
54954;DHT22;40855;51.072;5.402;2023-02-25T11:29:30;7.10;99.90
54954;DHT22;40855;51.072;5.402;2023-02-25T11:32:09;7.20;99.90
54954;DHT22;40855;51.072;5.402;2023-02-25T11:34:59;7.30;99.90
54954;DHT22;40855;51.072;5.402;2023-02-25T11:37:38;7.30;99.90
54954;DHT22;40855;51.072;5.402;2023-02-25T11:40:29;7.30;99.90
54954;DHT22;40855;51.072;5.402;2023-02-25T11:43:02;7.30;99.90
54954;DHT22;40855;51.072;5.402;2023-02-25T11:45:30;7.20;99.90
54954;DHT22;40855;51.072;5.402;2023-02-25T11:47:57;7.10;99.90
54954;DHT22;40855;51.072;5.402;2023-02-25T11:50:44;6.90;99.90
54954;DHT22;40855;51.072;5.402;2023-02-25T11:58:48;6.80;99.90
54954;DHT22;40855;51.072;5.402;2023-02-25T12:12:12;6.80;99.90
54954;DHT22;40855;51.072;5.402;2023-02-25T12:18:04;6.90;99.90
54954;DHT22;40855;51.072;5.402;2023-02-25T12:26:13;7.00;99.90
54954;DHT22;40855;51.072;5.402;2023-02-25T12:59:13;6.90;99.90
54954;DHT22;40855;51.072;5.402;2023-02-25T13:12:46;6.90;99.90
54954;DHT22;40855;51.072;5.402;2023-02-25T13:15:29;6.90;99.90
54954;DHT22;40855;51.072;5.402;2023-02-25T13:23:59;7.00;99.90
54954;DHT22;40855;51.072;5.402;2023-02-25T13:32:16;6.80;99.90
54954;DHT22;40855;51.072;5.402;2023-02-25T13:35:01;6.80;99.90
54954;DHT22;40855;51.072;5.402;2023-02-25T13:40:31;6.70;99.90
54954;DHT22;40855;51.072;5.402;2023-02-25T13:43:32;6.60;99.90
54954;DHT22;40855;51.072;5.402;2023-02-25T13:51:42;6.60;99.90
54954;DHT22;40855;51.072;5.402;2023-02-25T13:57:46;6.70;99.90
54954;DHT22;40855;51.072;5.402;2023-02-25T14:05:49;6.70;99.90
54954;DHT22;40855;51.072;5.402;2023-02-25T14:19:39;6.90;99.90
54954;DHT22;40855;51.072;5.402;2023-02-25T14:22:27;6.90;99.90
54954;DHT22;40855;51.072;5.402;2023-02-25T14:27:58;6.90;99.90
54954;DHT22;40855;51.072;5.402;2023-02-25T14:30:55;7.00;99.90
54954;DHT22;40855;51.072;5.402;2023-02-25T14:45:15;7.10;99.90
54954;DHT22;40855;51.072;5.402;2023-02-25T14:48:04;7.10;99.90
54954;DHT22;40855;51.072;5.402;2023-02-25T15:07:55;7.30;99.90
54954;DHT22;40855;51.072;5.402;2023-02-25T15:22:21;7.20;98.10
54954;DHT22;40855;51.072;5.402;2023-02-25T15:24:48;7.20;98.00
54954;DHT22;40855;51.072;5.402;2023-02-25T15:27:50;7.10;98.00
54954;DHT22;40855;51.072;5.402;2023-02-25T15:30:21;7.10;97.30
54954;DHT22;40855;51.072;5.402;2023-02-25T15:33:11;7.10;98.10
54954;DHT22;40855;51.072;5.402;2023-02-25T15:38:21;7.10;98.50
54954;DHT22;40855;51.072;5.402;2023-02-25T15:40:49;7.10;98.20
54954;DHT22;40855;51.072;5.402;2023-02-25T16:01:20;7.10;95.50
54954;DHT22;40855;51.072;5.402;2023-02-25T16:03:47;7.00;95.10
54954;DHT22;40855;51.072;5.402;2023-02-25T16:06:22;7.00;95.20
54954;DHT22;40855;51.072;5.402;2023-02-25T16:11:57;7.00;95.60
54954;DHT22;40855;51.072;5.402;2023-02-25T16:14:33;7.00;95.40
54954;DHT22;40855;51.072;5.402;2023-02-25T16:17:20;7.00;95.80
54954;DHT22;40855;51.072;5.402;2023-02-25T16:19:52;7.00;95.90
54954;DHT22;40855;51.072;5.402;2023-02-25T16:22:22;7.00;96.00
54954;DHT22;40855;51.072;5.402;2023-02-25T16:24:53;6.90;95.70
54954;DHT22;40855;51.072;5.402;2023-02-25T16:35:49;6.70;94.90
54954;DHT22;40855;51.072;5.402;2023-02-25T16:38:26;6.60;94.40
54954;DHT22;40855;51.072;5.402;2023-02-25T16:40:57;6.50;94.80
54954;DHT22;40855;51.072;5.402;2023-02-25T16:43:28;6.50;94.90
54954;DHT22;40855;51.072;5.402;2023-02-25T16:46:03;6.40;95.20
54954;DHT22;40855;51.072;5.402;2023-02-25T16:48:33;6.40;95.30
54954;DHT22;40855;51.072;5.402;2023-02-25T16:51:23;6.40;95.40
54954;DHT22;40855;51.072;5.402;2023-02-25T16:53:58;6.40;95.30
54954;DHT22;40855;51.072;5.402;2023-02-25T16:56:26;6.30;95.40
54954;DHT22;40855;51.072;5.402;2023-02-25T17:02:08;6.30;94.80
54954;DHT22;40855;51.072;5.402;2023-02-25T17:04:54;6.20;94.50
54954;DHT22;40855;51.072;5.402;2023-02-25T17:07:25;6.20;94.50
54954;DHT22;40855;51.072;5.402;2023-02-25T17:10:00;6.10;94.80
54954;DHT22;40855;51.072;5.402;2023-02-25T17:12:42;6.10;95.10
54954;DHT22;40855;51.072;5.402;2023-02-25T17:15:21;6.10;94.50
54954;DHT22;40855;51.072;5.402;2023-02-25T17:20:35;6.00;94.80
54954;DHT22;40855;51.072;5.402;2023-02-25T17:23:08;6.00;95.00
54954;DHT22;40855;51.072;5.402;2023-02-25T17:25:38;5.90;94.90
54954;DHT22;40855;51.072;5.402;2023-02-25T17:28:07;5.90;95.00
54954;DHT22;40855;51.072;5.402;2023-02-25T17:30:44;5.90;95.10
54954;DHT22;40855;51.072;5.402;2023-02-25T17:33:26;5.90;95.10
54954;DHT22;40855;51.072;5.402;2023-02-25T17:36:16;5.90;95.30
54954;DHT22;40855;51.072;5.402;2023-02-25T17:38:44;5.90;95.40
54954;DHT22;40855;51.072;5.402;2023-02-25T17:41:18;5.80;95.60
54954;DHT22;40855;51.072;5.402;2023-02-25T17:43:45;5.80;95.70
54954;DHT22;40855;51.072;5.402;2023-02-25T17:48:48;5.80;95.90
54954;DHT22;40855;51.072;5.402;2023-02-25T17:51:14;5.80;96.00
54954;DHT22;40855;51.072;5.402;2023-02-25T17:56:15;5.80;95.40
54954;DHT22;40855;51.072;5.402;2023-02-25T17:58:43;5.80;95.10
54954;DHT22;40855;51.072;5.402;2023-02-25T18:01:18;5.70;94.80
54954;DHT22;40855;51.072;5.402;2023-02-25T18:03:46;5.60;94.60
54954;DHT22;40855;51.072;5.402;2023-02-25T18:06:40;5.60;94.60
54954;DHT22;40855;51.072;5.402;2023-02-25T18:09:31;5.50;94.50
54954;DHT22;40855;51.072;5.402;2023-02-25T18:12:03;5.40;94.20
54954;DHT22;40855;51.072;5.402;2023-02-25T18:14:38;5.40;94.40
54954;DHT22;40855;51.072;5.402;2023-02-25T18:19:49;5.20;94.00
54954;DHT22;40855;51.072;5.402;2023-02-25T18:22:28;5.20;94.60
54954;DHT22;40855;51.072;5.402;2023-02-25T18:24:57;5.10;94.40
54954;DHT22;40855;51.072;5.402;2023-02-25T18:27:30;5.10;94.60
54954;DHT22;40855;51.072;5.402;2023-02-25T18:30:18;5.10;94.50
54954;DHT22;40855;51.072;5.402;2023-02-25T18:32:45;5.10;94.60
54954;DHT22;40855;51.072;5.402;2023-02-25T18:35:11;5.00;94.70
54954;DHT22;40855;51.072;5.402;2023-02-25T18:37:37;5.00;94.70
54954;DHT22;40855;51.072;5.402;2023-02-25T18:40:04;5.00;94.70
54954;DHT22;40855;51.072;5.402;2023-02-25T18:42:29;4.90;94.50
54954;DHT22;40855;51.072;5.402;2023-02-25T18:44:55;4.90;94.70
54954;DHT22;40855;51.072;5.402;2023-02-25T18:47:21;4.90;94.70
54954;DHT22;40855;51.072;5.402;2023-02-25T18:49:47;4.80;94.60
54954;DHT22;40855;51.072;5.402;2023-02-25T18:52:19;4.80;94.80
54954;DHT22;40855;51.072;5.402;2023-02-25T18:54:46;4.80;95.00
54954;DHT22;40855;51.072;5.402;2023-02-25T18:57:25;4.70;95.10
54954;DHT22;40855;51.072;5.402;2023-02-25T18:59:52;4.70;95.00
54954;DHT22;40855;51.072;5.402;2023-02-25T19:02:32;4.70;95.10
54954;DHT22;40855;51.072;5.402;2023-02-25T19:04:59;4.70;95.10
54954;DHT22;40855;51.072;5.402;2023-02-25T19:07:31;4.70;95.20
54954;DHT22;40855;51.072;5.402;2023-02-25T19:09:57;4.60;95.20
54954;DHT22;40855;51.072;5.402;2023-02-25T19:12:26;4.60;95.30
54954;DHT22;40855;51.072;5.402;2023-02-25T19:14:59;4.60;95.30
54954;DHT22;40855;51.072;5.402;2023-02-25T19:17:27;4.50;95.20
54954;DHT22;40855;51.072;5.402;2023-02-25T19:19:53;4.50;95.20
54954;DHT22;40855;51.072;5.402;2023-02-25T19:22:19;4.50;95.20
54954;DHT22;40855;51.072;5.402;2023-02-25T19:24:47;4.40;95.40
54954;DHT22;40855;51.072;5.402;2023-02-25T19:27:21;4.40;95.50
54954;DHT22;40855;51.072;5.402;2023-02-25T19:29:48;4.40;95.60
54954;DHT22;40855;51.072;5.402;2023-02-25T19:32:15;4.40;95.80
54954;DHT22;40855;51.072;5.402;2023-02-25T19:34:41;4.30;95.80
54954;DHT22;40855;51.072;5.402;2023-02-25T19:37:07;4.30;95.90
54954;DHT22;40855;51.072;5.402;2023-02-25T19:39:33;4.30;96.10
54954;DHT22;40855;51.072;5.402;2023-02-25T19:41:59;4.20;96.30
54954;DHT22;40855;51.072;5.402;2023-02-25T19:44:24;4.20;96.30
54954;DHT22;40855;51.072;5.402;2023-02-25T19:46:50;4.20;96.40
54954;DHT22;40855;51.072;5.402;2023-02-25T19:49:16;4.20;96.60
54954;DHT22;40855;51.072;5.402;2023-02-25T19:51:42;4.20;97.20
54954;DHT22;40855;51.072;5.402;2023-02-25T19:54:08;4.20;97.40
54954;DHT22;40855;51.072;5.402;2023-02-25T19:56:34;4.10;97.20
54954;DHT22;40855;51.072;5.402;2023-02-25T19:58:59;4.10;97.10
54954;DHT22;40855;51.072;5.402;2023-02-25T20:01:25;4.10;97.10
54954;DHT22;40855;51.072;5.402;2023-02-25T20:03:52;4.10;97.20
54954;DHT22;40855;51.072;5.402;2023-02-25T20:06:19;4.10;97.20
54954;DHT22;40855;51.072;5.402;2023-02-25T20:08:47;4.10;97.20
54954;DHT22;40855;51.072;5.402;2023-02-25T20:11:17;4.10;97.20
54954;DHT22;40855;51.072;5.402;2023-02-25T20:13:45;4.10;97.30
54954;DHT22;40855;51.072;5.402;2023-02-25T20:16:11;4.00;97.20